createdAt,value
2018-09-23T00:00:51.957Z,101207.67
2018-09-23T00:01:57.449Z,101208.09
2018-09-23T00:03:02.954Z,101203.77
2018-09-23T00:04:08.504Z,101207.14
2018-09-23T00:05:13.939Z,101205.75
2018-09-23T00:06:19.421Z,101202.77
2018-09-23T00:07:25.117Z,101204.08
2018-09-23T00:08:30.624Z,101214.81
2018-09-23T00:09:36.200Z,101220.81
2018-09-23T00:10:41.720Z,101213.48
2018-09-23T00:11:47.228Z,101217.33
2018-09-23T00:12:52.773Z,101221.13
2018-09-23T00:13:58.240Z,101222.27
2018-09-23T00:15:03.715Z,101226.95
2018-09-23T00:16:09.168Z,101238.09
2018-09-23T00:17:14.668Z,101227.73
2018-09-23T00:18:20.141Z,101229.41
2018-09-23T00:19:25.708Z,101224.30
2018-09-23T00:20:31.164Z,101222.58
2018-09-23T00:21:36.642Z,101221.72
2018-09-23T00:22:42.111Z,101214.80
2018-09-23T00:23:47.742Z,101208.38
2018-09-23T00:24:53.205Z,101209.27
2018-09-23T00:25:59.034Z,101210.94
2018-09-23T00:27:04.633Z,101210.47
2018-09-23T00:28:10.200Z,101216.05
2018-09-23T00:29:20.008Z,101218.98
2018-09-23T00:30:25.472Z,101215.58
2018-09-23T00:31:31.038Z,101214.80
2018-09-23T00:32:36.621Z,101215.96
2018-09-23T00:33:42.222Z,101216.44
2018-09-23T00:34:47.733Z,101209.99
2018-09-23T00:35:53.491Z,101217.36
2018-09-23T00:36:59.008Z,101210.94
2018-09-23T00:38:04.471Z,101215.16
2018-09-23T00:39:10.007Z,101211.25
2018-09-23T00:40:15.617Z,101209.06
2018-09-23T00:41:21.391Z,101209.94
2018-09-23T00:42:26.952Z,101204.77
2018-09-23T00:43:32.681Z,101200.50
2018-09-23T00:44:38.324Z,101198.77
2018-09-23T00:45:43.820Z,101203.07
2018-09-23T00:46:49.272Z,101197.52
2018-09-23T00:47:54.859Z,101200.95
2018-09-23T00:49:00.390Z,101194.08
2018-09-23T00:50:06.660Z,101197.72
2018-09-23T00:51:12.461Z,101193.86
2018-09-23T00:52:18.003Z,101194.23
2018-09-23T00:53:23.462Z,101187.39
2018-09-23T00:54:29.056Z,101184.83
2018-09-23T00:55:34.529Z,101181.37
2018-09-23T00:56:40.022Z,101183.97
2018-09-23T00:57:45.683Z,101180.95
2018-09-23T00:58:51.431Z,101184.74
2018-09-23T00:59:57.064Z,101185.45
2018-09-23T01:01:02.568Z,101184.23
2018-09-23T01:02:08.129Z,101183.37
2018-09-23T01:03:13.591Z,101182.53
2018-09-23T01:04:19.143Z,101174.41
2018-09-23T01:05:24.600Z,101173.72
2018-09-23T01:06:30.146Z,101175.39
2018-09-23T01:07:35.752Z,101165.97
2018-09-23T01:08:41.185Z,101171.91
2018-09-23T01:09:46.621Z,101165.19
2018-09-23T01:10:52.160Z,101168.17
2018-09-23T01:11:57.669Z,101162.50
2018-09-23T01:13:03.089Z,101163.75
2018-09-23T01:14:08.921Z,101161.58
2018-09-23T01:15:14.382Z,101161.55
2018-09-23T01:16:20.067Z,101159.75
2018-09-23T01:17:25.606Z,101158.92
2018-09-23T01:18:31.088Z,101160.69
2018-09-23T01:19:36.527Z,101156.80
2018-09-23T01:20:42.050Z,101155.91
2018-09-23T01:21:47.569Z,101155.02
2018-09-23T01:22:53.258Z,101148.95
2018-09-23T01:23:58.778Z,101142.53
2018-09-23T01:25:04.364Z,101133.99
2018-09-23T01:26:09.893Z,101134.56
2018-09-23T01:27:15.547Z,101132.41
2018-09-23T01:28:20.961Z,101143.61
2018-09-23T01:29:26.479Z,101139.82
2018-09-23T01:30:32.142Z,101142.30
2018-09-23T01:31:37.638Z,101136.62
2018-09-23T01:32:43.075Z,101137.12
2018-09-23T01:33:48.550Z,101130.36
2018-09-23T01:34:54.133Z,101136.33
2018-09-23T01:35:59.589Z,101134.95
2018-09-23T01:37:05.050Z,101130.77
2018-09-23T01:38:10.590Z,101128.56
2018-09-23T01:39:16.160Z,101133.19
2018-09-23T01:40:21.621Z,101132.31
2018-09-23T01:41:27.091Z,101134.53
2018-09-23T01:42:32.526Z,101139.22
2018-09-23T01:43:38.013Z,101139.22
2018-09-23T01:44:43.479Z,101142.56
2018-09-23T01:45:48.929Z,101142.56
2018-09-23T01:46:54.369Z,101137.33
2018-09-23T01:47:59.800Z,101136.34
2018-09-23T01:49:05.313Z,101136.31
2018-09-23T01:50:10.807Z,101138.84
2018-09-23T01:51:16.413Z,101135.48
2018-09-23T01:52:21.881Z,101135.41
2018-09-23T01:53:27.359Z,101137.98
2018-09-23T01:54:32.812Z,101138.40
2018-09-23T01:55:38.278Z,101141.03
2018-09-23T01:56:43.849Z,101136.80
2018-09-23T01:57:49.439Z,101135.89
2018-09-23T01:58:55.188Z,101142.19
2018-09-23T02:00:00.629Z,101139.20
2018-09-23T02:01:06.152Z,101137.47
2018-09-23T02:02:11.568Z,101136.19
2018-09-23T02:03:17.001Z,101140.48
2018-09-23T02:04:22.463Z,101137.53
2018-09-23T02:05:27.897Z,101135.32
2018-09-23T02:06:33.400Z,101126.33
2018-09-23T02:07:39.062Z,101119.91
2018-09-23T02:08:44.482Z,101118.59
2018-09-23T02:09:50.041Z,101116.92
2018-09-23T02:10:55.520Z,101113.97
2018-09-23T02:12:01.062Z,101118.69
2018-09-23T02:13:06.573Z,101117.83
2018-09-23T02:14:12.040Z,101113.49
2018-09-23T02:15:17.587Z,101111.41
2018-09-23T02:16:23.046Z,101114.00
2018-09-23T02:17:28.489Z,101112.75
2018-09-23T02:18:33.947Z,101111.89
2018-09-23T02:19:39.381Z,101108.93
2018-09-23T02:20:44.942Z,101109.41
2018-09-23T02:21:50.393Z,101106.64
2018-09-23T02:22:55.825Z,101107.42
2018-09-23T02:24:01.400Z,101099.20
2018-09-23T02:25:06.977Z,101108.93
2018-09-23T02:26:12.540Z,101109.31
2018-09-23T02:27:17.976Z,101107.13
2018-09-23T02:28:23.409Z,101106.81
2018-09-23T02:29:28.912Z,101107.33
2018-09-23T02:30:34.415Z,101101.70
2018-09-23T02:31:39.878Z,101105.63
2018-09-23T02:32:45.368Z,101098.08
2018-09-23T02:33:50.813Z,101090.09
2018-09-23T02:34:56.291Z,101095.99
2018-09-23T02:36:01.720Z,101095.99
2018-09-23T02:37:07.288Z,101096.95
2018-09-23T02:38:12.875Z,101089.11
2018-09-23T02:39:18.527Z,101086.19
2018-09-23T02:40:24.328Z,101086.94
2018-09-23T02:41:29.786Z,101082.57
2018-09-23T02:42:35.175Z,101086.33
2018-09-23T02:43:40.936Z,101079.81
2018-09-23T02:44:46.358Z,101080.62
2018-09-23T02:45:51.744Z,101083.09
2018-09-23T02:46:57.181Z,101081.81
2018-09-23T02:48:02.684Z,101075.52
2018-09-23T02:49:08.151Z,101085.27
2018-09-23T02:50:13.705Z,101077.09
2018-09-23T02:51:19.131Z,101068.20
2018-09-23T02:52:24.649Z,101074.55
2018-09-23T02:53:30.052Z,101070.19
2018-09-23T02:54:35.837Z,101068.52
2018-09-23T02:55:41.400Z,101071.95
2018-09-23T02:56:46.841Z,101069.88
2018-09-23T02:57:52.282Z,101069.03
2018-09-23T02:58:57.684Z,101069.84
2018-09-23T03:00:03.149Z,101069.09
2018-09-23T03:01:09.371Z,101069.42
2018-09-23T03:02:14.818Z,101069.09
2018-09-23T03:03:20.408Z,101074.66
2018-09-23T03:04:25.919Z,101075.13
2018-09-23T03:05:31.374Z,101074.55
2018-09-23T03:06:37.225Z,101073.37
2018-09-23T03:07:42.752Z,101078.02
2018-09-23T03:08:48.234Z,101071.22
2018-09-23T03:09:53.685Z,101073.75
2018-09-23T03:10:59.133Z,101078.41
2018-09-23T03:12:04.749Z,101075.33
2018-09-23T03:13:10.437Z,101068.84
2018-09-23T03:14:15.891Z,101071.02
2018-09-23T03:15:21.294Z,101066.41
2018-09-23T03:16:26.760Z,101056.94
2018-09-23T03:17:32.156Z,101047.50
2018-09-23T03:18:37.629Z,101045.89
2018-09-23T03:19:43.064Z,101040.73
2018-09-23T03:20:48.631Z,101044.58
2018-09-23T03:21:54.073Z,101048.11
2018-09-23T03:22:59.538Z,101038.77
2018-09-23T03:24:05.072Z,101039.99
2018-09-23T03:25:10.530Z,101034.77
2018-09-23T03:26:16.049Z,101039.00
2018-09-23T03:27:21.519Z,101032.64
2018-09-23T03:28:27.007Z,101032.61
2018-09-23T03:29:32.473Z,101021.58
2018-09-23T03:30:37.989Z,101017.38
2018-09-23T03:31:43.485Z,101018.59
2018-09-23T03:32:48.987Z,101023.69
2018-09-23T03:33:54.484Z,101019.10
2018-09-23T03:35:00.021Z,101023.44
2018-09-23T03:36:05.565Z,101010.50
2018-09-23T03:37:11.145Z,101008.84
2018-09-23T03:38:16.597Z,101003.19
2018-09-23T03:39:22.093Z,100989.97
2018-09-23T03:40:27.533Z,100977.48
2018-09-23T03:41:32.981Z,100974.39
2018-09-23T03:42:38.517Z,100970.96
2018-09-23T03:43:44.072Z,100960.83
2018-09-23T03:44:49.470Z,100964.27
2018-09-23T03:45:55.017Z,100962.98
2018-09-23T03:47:00.441Z,100973.66
2018-09-23T03:48:06.099Z,100987.50
2018-09-23T03:49:11.598Z,100993.12
2018-09-23T03:50:17.065Z,101002.20
2018-09-23T03:51:22.600Z,101004.70
2018-09-23T03:52:28.060Z,101002.06
2018-09-23T03:53:33.610Z,101003.35
2018-09-23T03:54:39.120Z,100998.19
2018-09-23T03:55:44.588Z,100987.44
2018-09-23T03:56:50.075Z,100984.42
2018-09-23T03:57:55.664Z,100980.08
2018-09-23T03:59:01.101Z,100983.13
2018-09-23T04:00:07.315Z,100979.31
2018-09-23T04:01:12.740Z,100977.62
2018-09-23T04:02:18.233Z,100981.28
2018-09-23T04:03:23.971Z,100981.25
2018-09-23T04:04:29.404Z,100986.34
2018-09-23T04:05:35.462Z,100981.67
2018-09-23T04:06:40.964Z,100983.81
2018-09-23T04:07:46.393Z,100985.94
2018-09-23T04:08:51.869Z,100991.97
2018-09-23T04:09:57.402Z,100979.90
2018-09-23T04:11:03.153Z,100985.03
2018-09-23T04:12:08.653Z,100983.78
2018-09-23T04:13:14.152Z,100985.03
2018-09-23T04:14:19.608Z,100982.47
2018-09-23T04:15:25.098Z,100983.27
2018-09-23T04:16:30.545Z,100983.23
2018-09-23T04:17:36.123Z,100982.72
2018-09-23T04:18:42.793Z,100989.13
2018-09-23T04:19:48.365Z,100993.02
2018-09-23T04:20:53.833Z,100987.85
2018-09-23T04:21:59.294Z,100987.75
2018-09-23T04:23:04.831Z,100982.61
2018-09-23T04:24:10.356Z,100988.65
2018-09-23T04:25:16.060Z,100987.40
2018-09-23T04:26:22.285Z,100992.02
2018-09-23T04:27:27.897Z,100986.81
2018-09-23T04:28:33.322Z,100977.38
2018-09-23T04:29:38.798Z,100967.49
2018-09-23T04:30:44.228Z,100964.06
2018-09-23T04:31:49.828Z,100962.29
2018-09-23T04:32:55.365Z,100961.84
2018-09-23T04:34:00.845Z,100958.47
2018-09-23T04:35:06.308Z,100965.38
2018-09-23T04:36:11.849Z,100962.87
2018-09-23T04:37:17.366Z,100967.73
2018-09-23T04:38:22.878Z,100964.27
2018-09-23T04:39:28.352Z,100967.18
2018-09-23T04:40:33.993Z,100965.86
2018-09-23T04:41:39.488Z,100966.73
2018-09-23T04:42:44.988Z,100964.65
2018-09-23T04:43:50.493Z,100967.70
2018-09-23T04:44:56.140Z,100966.45
2018-09-23T04:46:01.657Z,100963.19
2018-09-23T04:47:07.349Z,100959.88
2018-09-23T04:48:12.837Z,100960.37
2018-09-23T04:49:18.321Z,100958.98
2018-09-23T04:50:23.836Z,100954.75
2018-09-23T04:51:29.523Z,100961.55
2018-09-23T04:52:34.988Z,100945.48
2018-09-23T04:53:40.448Z,100948.41
2018-09-23T04:54:46.025Z,100943.23
2018-09-23T04:55:51.482Z,100941.98
2018-09-23T04:56:56.977Z,100944.20
2018-09-23T04:58:02.530Z,100945.52
2018-09-23T04:59:08.129Z,100948.98
2018-09-23T05:00:13.735Z,100942.98
2018-09-23T05:01:19.359Z,100950.65
2018-09-23T05:02:24.810Z,100947.67
2018-09-23T05:03:30.278Z,100945.00
2018-09-23T05:04:35.791Z,100943.27
2018-09-23T05:05:41.269Z,100941.95
2018-09-23T05:06:46.709Z,100934.25
2018-09-23T05:07:52.273Z,100932.52
2018-09-23T05:08:57.717Z,100933.87
2018-09-23T05:10:03.276Z,100930.09
2018-09-23T05:11:08.766Z,100932.13
2018-09-23T05:12:14.525Z,100940.25
2018-09-23T05:13:20.100Z,100935.57
2018-09-23T05:14:25.617Z,100941.64
2018-09-23T05:15:31.043Z,100941.12
2018-09-23T05:16:36.539Z,100938.63
2018-09-23T05:17:42.017Z,100937.81
2018-09-23T05:18:47.423Z,100942.53
2018-09-23T05:19:52.824Z,100940.39
2018-09-23T05:20:58.265Z,100940.77
2018-09-23T05:22:04.115Z,100937.30
2018-09-23T05:23:09.612Z,100946.16
2018-09-23T05:24:15.108Z,100945.31
2018-09-23T05:25:20.558Z,100945.73
2018-09-23T05:26:26.062Z,100943.69
2018-09-23T05:27:31.601Z,100947.88
2018-09-23T05:28:37.039Z,100947.05
2018-09-23T05:29:42.489Z,100948.37
2018-09-23T05:30:48.211Z,100945.03
2018-09-23T05:31:53.745Z,100947.22
2018-09-23T05:32:59.281Z,100943.44
2018-09-23T05:34:04.789Z,100938.75
2018-09-23T05:35:10.315Z,100935.64
2018-09-23T05:36:15.762Z,100938.20
2018-09-23T05:37:21.235Z,100936.05
2018-09-23T05:38:26.788Z,100938.23
2018-09-23T05:39:32.377Z,100937.02
2018-09-23T05:40:37.841Z,100935.67
2018-09-23T05:41:43.300Z,100935.73
2018-09-23T05:42:48.970Z,100931.16
2018-09-23T05:43:54.633Z,100932.47
2018-09-23T05:45:00.045Z,100931.25
2018-09-23T05:46:05.914Z,100928.23
2018-09-23T05:47:11.390Z,100937.70
2018-09-23T05:48:16.845Z,100936.94
2018-09-23T05:49:22.369Z,100944.98
2018-09-23T05:50:27.811Z,100944.47
2018-09-23T05:51:33.228Z,100949.22
2018-09-23T05:52:39.618Z,100953.58
2018-09-23T05:53:45.161Z,100956.94
2018-09-23T05:54:50.795Z,100951.46
2018-09-23T05:55:56.277Z,100956.11
2018-09-23T05:57:01.771Z,100954.86
2018-09-23T05:58:07.242Z,100955.63
2018-09-23T05:59:12.705Z,100956.37
2018-09-23T06:00:18.781Z,100946.45
2018-09-23T06:01:24.302Z,100938.41
2018-09-23T06:02:30.005Z,100940.66
2018-09-23T06:03:35.537Z,100938.89
2018-09-23T06:04:41.437Z,100943.22
2018-09-23T06:05:46.888Z,100943.22
2018-09-23T06:06:52.357Z,100933.75
2018-09-23T06:07:57.818Z,100933.47
2018-09-23T06:09:03.309Z,100936.42
2018-09-23T06:10:08.873Z,100932.16
2018-09-23T06:11:14.353Z,100920.51
2018-09-23T06:12:19.828Z,100917.56
2018-09-23T06:13:25.480Z,100917.98
2018-09-23T06:14:30.909Z,100914.64
2018-09-23T06:15:36.562Z,100922.82
2018-09-23T06:16:42.013Z,100918.87
2018-09-23T06:17:47.478Z,100912.53
2018-09-23T06:18:53.005Z,100910.73
2018-09-23T06:19:58.453Z,100912.01
2018-09-23T06:21:03.912Z,100909.48
2018-09-23T06:22:09.456Z,100906.43
2018-09-23T06:23:15.001Z,100903.86
2018-09-23T06:24:20.543Z,100911.01
2018-09-23T06:25:26.013Z,100919.92
2018-09-23T06:26:31.477Z,100921.97
2018-09-23T06:27:36.934Z,100920.63
2018-09-23T06:28:42.389Z,100919.62
2018-09-23T06:29:47.924Z,100921.28
2018-09-23T06:30:53.384Z,100923.78
2018-09-23T06:31:58.866Z,100929.36
2018-09-23T06:33:04.410Z,100926.77
2018-09-23T06:34:10.260Z,100928.95
2018-09-23T06:35:15.623Z,100928.63
2018-09-23T06:36:21.189Z,100924.75
2018-09-23T06:37:26.709Z,100923.05
2018-09-23T06:38:32.208Z,100923.81
2018-09-23T06:39:37.625Z,100922.95
2018-09-23T06:40:43.132Z,100922.53
2018-09-23T06:41:48.524Z,100924.61
2018-09-23T06:42:53.982Z,100924.27
2018-09-23T06:43:59.482Z,100912.27
2018-09-23T06:45:05.936Z,100909.28
2018-09-23T06:46:11.740Z,100904.08
2018-09-23T06:47:17.295Z,100911.44
2018-09-23T06:48:22.806Z,100900.71
2018-09-23T06:49:28.743Z,100899.47
2018-09-23T06:50:34.223Z,100902.45
2018-09-23T06:51:39.725Z,100905.02
2018-09-23T06:52:45.216Z,100907.79
2018-09-23T06:53:52.775Z,100906.61
2018-09-23T06:54:58.351Z,100905.60
2018-09-23T06:56:03.885Z,100903.42
2018-09-23T06:57:09.380Z,100910.63
2018-09-23T06:58:14.837Z,100908.63
2018-09-23T06:59:20.328Z,100900.09
2018-09-23T07:00:25.829Z,100899.22
2018-09-23T07:01:31.325Z,100912.13
2018-09-23T07:02:38.004Z,100907.44
2018-09-23T07:03:44.346Z,100908.31
2018-09-23T07:04:49.913Z,100901.44
2018-09-23T07:05:55.587Z,100896.66
2018-09-23T07:07:01.253Z,100901.16
2018-09-23T07:08:06.882Z,100896.52
2018-09-23T07:09:12.346Z,100895.30
2018-09-23T07:10:17.804Z,100895.75
2018-09-23T07:11:23.216Z,100899.91
2018-09-23T07:12:28.955Z,100890.83
2018-09-23T07:13:34.427Z,100889.92
2018-09-23T07:14:39.915Z,100889.02
2018-09-23T07:15:45.433Z,100891.66
2018-09-23T07:16:50.857Z,100893.28
2018-09-23T07:17:56.707Z,100894.67
2018-09-23T07:19:02.169Z,100892.45
2018-09-23T07:20:07.739Z,100885.59
2018-09-23T07:21:13.221Z,100886.53
2018-09-23T07:22:18.685Z,100885.69
2018-09-23T07:23:24.119Z,100876.26
2018-09-23T07:24:29.601Z,100889.44
2018-09-23T07:25:35.148Z,100891.14
2018-09-23T07:26:40.741Z,100897.11
2018-09-23T07:27:46.385Z,100894.95
2018-09-23T07:28:51.945Z,100889.71
2018-09-23T07:29:57.493Z,100882.73
2018-09-23T07:31:02.990Z,100876.73
2018-09-23T07:32:08.558Z,100877.63
2018-09-23T07:33:14.024Z,100875.03
2018-09-23T07:34:19.677Z,100877.59
2018-09-23T07:35:25.148Z,100875.83
2018-09-23T07:36:30.619Z,100882.55
2018-09-23T07:37:36.096Z,100881.27
2018-09-23T07:38:41.653Z,100890.29
2018-09-23T07:39:47.643Z,100890.77
2018-09-23T07:40:53.197Z,100889.11
2018-09-23T07:41:58.672Z,100885.72
2018-09-23T07:43:04.145Z,100881.37
2018-09-23T07:44:09.834Z,100869.41
2018-09-23T07:45:15.437Z,100866.80
2018-09-23T07:46:21.008Z,100864.27
2018-09-23T07:47:26.538Z,100864.58
2018-09-23T07:48:32.212Z,100864.16
2018-09-23T07:49:37.685Z,100864.95
2018-09-23T07:50:43.207Z,100858.16
2018-09-23T07:51:48.623Z,100856.69
2018-09-23T07:52:54.128Z,100852.80
2018-09-23T07:53:59.828Z,100839.02
2018-09-23T07:55:05.405Z,100835.53
2018-09-23T07:56:11.023Z,100835.31
2018-09-23T07:57:16.469Z,100841.31
2018-09-23T07:58:22.235Z,100843.44
2018-09-23T07:59:27.702Z,100855.25
2018-09-23T08:00:33.314Z,100860.73
2018-09-23T08:01:38.772Z,100849.97
2018-09-23T08:02:44.314Z,100854.53
2018-09-23T08:03:49.834Z,100852.00
2018-09-23T08:04:55.329Z,100854.27
2018-09-23T08:06:00.932Z,100858.05
2018-09-23T08:07:06.529Z,100854.31
2018-09-23T08:08:11.961Z,100848.72
2018-09-23T08:09:17.405Z,100855.86
2018-09-23T08:10:23.362Z,100851.09
2018-09-23T08:11:28.854Z,100852.61
2018-09-23T08:12:34.544Z,100849.47
2018-09-23T08:13:40.202Z,100841.20
2018-09-23T08:14:45.993Z,100834.20
2018-09-23T08:15:50.957Z,100825.25
2018-09-23T08:16:56.457Z,100827.45
2018-09-23T08:18:02.020Z,100831.72
2018-09-23T08:19:08.235Z,100823.06
2018-09-23T08:20:13.687Z,100818.04
2018-09-23T08:21:19.348Z,100812.04
2018-09-23T08:22:25.229Z,100811.28
2018-09-23T08:23:30.874Z,100814.61
2018-09-23T08:24:36.381Z,100815.31
2018-09-23T08:25:41.902Z,100808.85
2018-09-23T08:26:47.304Z,100809.22
2018-09-23T08:27:53.108Z,100805.83
2018-09-23T08:28:58.691Z,100803.63
2018-09-23T08:30:04.229Z,100811.72
2018-09-23T08:31:09.910Z,100814.94
2018-09-23T08:32:15.436Z,100818.88
2018-09-23T08:33:20.941Z,100825.92
2018-09-23T08:34:26.547Z,100824.77
2018-09-23T08:35:32.053Z,100828.58
2018-09-23T08:36:37.540Z,100818.59
2018-09-23T08:37:43.025Z,100808.77
2018-09-23T08:38:49.097Z,100804.25
2018-09-23T08:39:54.933Z,100812.70
2018-09-23T08:41:00.685Z,100805.58
2018-09-23T08:42:06.357Z,100800.77
2018-09-23T08:43:11.910Z,100796.55
2018-09-23T08:44:17.429Z,100797.45
2018-09-23T08:45:22.899Z,100799.16
2018-09-23T08:46:28.456Z,100808.19
2018-09-23T08:47:33.900Z,100810.83
2018-09-23T08:48:39.459Z,100807.31
2018-09-23T08:49:44.924Z,100817.13
2018-09-23T08:50:50.477Z,100820.91
2018-09-23T08:51:56.215Z,100823.06
2018-09-23T08:53:01.658Z,100824.58
2018-09-23T08:54:07.200Z,100820.77
2018-09-23T08:55:12.681Z,100825.38
2018-09-23T08:56:18.188Z,100826.92
2018-09-23T08:57:24.059Z,100825.25
2018-09-23T08:58:29.609Z,100820.98
2018-09-23T08:59:35.068Z,100815.81
2018-09-23T09:00:40.589Z,100819.17
2018-09-23T09:01:46.137Z,100828.95
2018-09-23T09:02:52.141Z,100824.72
2018-09-23T09:03:57.734Z,100823.89
2018-09-23T09:05:03.266Z,100812.33
2018-09-23T09:06:09.258Z,100808.32
2018-09-23T09:07:14.697Z,100808.32
2018-09-23T09:08:20.245Z,100801.86
2018-09-23T09:09:25.809Z,100795.93
2018-09-23T09:10:31.276Z,100794.89
2018-09-23T09:11:37.117Z,100799.66
2018-09-23T09:12:42.587Z,100799.33
2018-09-23T09:13:48.094Z,100796.22
2018-09-23T09:14:53.694Z,100800.48
2018-09-23T09:15:59.659Z,100796.80
2018-09-23T09:17:05.190Z,100800.16
2018-09-23T09:18:10.692Z,100803.97
2018-09-23T09:19:16.225Z,100798.62
2018-09-23T09:20:21.703Z,100791.33
2018-09-23T09:21:27.229Z,100796.01
2018-09-23T09:22:32.647Z,100803.67
2018-09-23T09:23:38.109Z,100814.94
2018-09-23T09:24:43.576Z,100818.00
2018-09-23T09:25:49.170Z,100823.89
2018-09-23T09:26:54.662Z,100826.87
2018-09-23T09:28:00.165Z,100809.02
2018-09-23T09:29:05.738Z,100796.25
2018-09-23T09:30:11.249Z,100787.83
2018-09-23T09:31:16.824Z,100792.02
2018-09-23T09:32:22.418Z,100795.42
2018-09-23T09:33:28.450Z,100795.34
2018-09-23T09:34:34.069Z,100802.45
2018-09-23T09:35:39.557Z,100802.56
2018-09-23T09:36:45.249Z,100808.98
2018-09-23T09:37:50.730Z,100813.55
2018-09-23T09:38:56.280Z,100811.36
2018-09-23T09:40:01.730Z,100810.16
2018-09-23T09:41:07.850Z,100806.68
2018-09-23T09:42:13.409Z,100802.00
2018-09-23T09:43:18.908Z,100800.00
2018-09-23T09:44:24.421Z,100796.60
2018-09-23T09:45:29.993Z,100793.77
2018-09-23T09:46:35.756Z,100795.55
2018-09-23T09:47:41.281Z,100794.91
2018-09-23T09:48:47.276Z,100799.96
2018-09-23T09:49:52.757Z,100815.29
2018-09-23T09:50:58.210Z,100811.94
2018-09-23T09:52:05.047Z,100815.67
2018-09-23T09:53:10.478Z,100817.07
2018-09-23T09:54:16.177Z,100825.53
2018-09-23T09:55:21.703Z,100831.23
2018-09-23T09:56:27.265Z,100828.62
2018-09-23T09:57:32.795Z,100825.88
2018-09-23T09:58:38.308Z,100819.98
2018-09-23T09:59:43.840Z,100812.28
2018-09-23T10:00:49.390Z,100813.79
2018-09-23T10:01:54.886Z,100805.63
2018-09-23T10:03:00.345Z,100815.19
2018-09-23T10:04:05.994Z,100818.51
2018-09-23T10:05:11.522Z,100822.36
2018-09-23T10:06:16.972Z,100829.20
2018-09-23T10:07:22.436Z,100830.17
2018-09-23T10:08:28.006Z,100822.81
2018-09-23T10:09:33.520Z,100811.71
2018-09-23T10:10:39.000Z,100803.52
2018-09-23T10:11:44.601Z,100803.44
2018-09-23T10:12:50.129Z,100805.55
2018-09-23T10:13:55.565Z,100797.22
2018-09-23T10:15:01.055Z,100797.28
2018-09-23T10:16:07.085Z,100783.40
2018-09-23T10:17:12.538Z,100767.66
2018-09-23T10:18:18.021Z,100752.33
2018-09-23T10:19:23.614Z,100738.17
2018-09-23T10:20:29.193Z,100732.16
2018-09-23T10:21:35.428Z,100727.86
2018-09-23T10:22:41.138Z,100731.05
2018-09-23T10:23:46.564Z,100738.41
2018-09-23T10:24:52.549Z,100755.77
2018-09-23T10:25:58.099Z,100766.82
2018-09-23T10:27:03.713Z,100772.00
2018-09-23T10:28:09.308Z,100789.78
2018-09-23T10:29:15.174Z,100800.31
2018-09-23T10:30:20.818Z,100807.26
2018-09-23T10:31:26.393Z,100810.23
2018-09-23T10:32:31.933Z,100806.28
2018-09-23T10:33:37.479Z,100806.20
2018-09-23T10:34:43.042Z,100797.52
2018-09-23T10:35:48.742Z,100796.57
2018-09-23T10:36:54.393Z,100788.77
2018-09-23T10:37:59.970Z,100780.80
2018-09-23T10:39:08.048Z,100770.75
2018-09-23T10:40:13.633Z,100758.72
2018-09-23T10:41:19.167Z,100753.88
2018-09-23T10:42:25.041Z,100742.44
2018-09-23T10:43:30.576Z,100733.13
2018-09-23T10:44:36.125Z,100727.42
2018-09-23T10:45:41.789Z,100722.21
2018-09-23T10:46:47.637Z,100717.64
2018-09-23T10:47:53.466Z,100714.78
2018-09-23T10:48:59.353Z,100710.93
2018-09-23T10:50:05.093Z,100708.48
2018-09-23T10:51:10.906Z,100708.48
2018-09-23T10:52:16.658Z,100711.42
2018-09-23T10:53:22.056Z,100719.46
2018-09-23T10:54:27.841Z,100735.13
2018-09-23T10:55:33.708Z,100737.65
2018-09-23T10:56:39.476Z,100733.31
2018-09-23T10:57:45.312Z,100728.44
2018-09-23T10:58:50.961Z,100727.69
2018-09-23T10:59:56.703Z,100740.93
2018-09-23T11:01:02.512Z,100745.88
2018-09-23T11:02:08.291Z,100751.47
2018-09-23T11:03:14.029Z,100752.26
2018-09-23T11:04:20.025Z,100762.91
2018-09-23T11:05:25.696Z,100775.70
2018-09-23T11:06:31.181Z,100811.74
2018-09-23T11:07:36.734Z,100843.21
2018-09-23T11:08:42.213Z,100881.70
2018-09-23T11:09:47.926Z,100908.59
2018-09-23T11:10:53.597Z,100916.60
2018-09-23T11:11:59.186Z,100905.84
2018-09-23T11:13:04.846Z,100882.19
2018-09-23T11:14:11.077Z,100865.54
2018-09-23T11:15:16.837Z,100853.50
2018-09-23T11:16:22.396Z,100832.48
2018-09-23T11:17:28.209Z,100805.00
2018-09-23T11:18:33.781Z,100773.84
2018-09-23T11:19:39.637Z,100756.00
2018-09-23T11:20:45.454Z,100743.80
2018-09-23T11:21:51.024Z,100731.05
2018-09-23T11:22:56.825Z,100734.56
2018-09-23T11:24:02.592Z,100727.73
2018-09-23T11:25:08.349Z,100720.60
2018-09-23T11:26:14.247Z,100719.84
2018-09-23T11:27:19.870Z,100722.38
2018-09-23T11:28:25.502Z,100715.09
2018-09-23T11:29:31.298Z,100707.28
2018-09-23T11:30:36.996Z,100706.94
2018-09-23T11:31:42.833Z,100702.00
2018-09-23T11:32:48.527Z,100704.60
2018-09-23T11:33:54.194Z,100705.77
2018-09-23T11:35:00.068Z,100710.38
2018-09-23T11:36:06.245Z,100727.28
2018-09-23T11:37:12.179Z,100745.62
2018-09-23T11:38:18.036Z,100764.41
2018-09-23T11:39:23.678Z,100781.02
2018-09-23T11:40:29.305Z,100783.52
2018-09-23T11:41:34.960Z,100770.00
2018-09-23T11:42:40.762Z,100766.78
2018-09-23T11:43:46.382Z,100765.20
2018-09-23T11:44:51.946Z,100773.39
2018-09-23T11:45:57.758Z,100782.42
2018-09-23T11:47:03.395Z,100779.02
2018-09-23T11:48:09.097Z,100761.23
2018-09-23T11:49:14.794Z,100748.40
2018-09-23T11:50:20.599Z,100733.98
2018-09-23T11:51:26.426Z,100734.41
2018-09-23T11:52:32.237Z,100736.11
2018-09-23T11:53:38.196Z,100745.20
2018-09-23T11:54:44.112Z,100739.62
2018-09-23T11:55:49.749Z,100739.64
2018-09-23T11:56:55.393Z,100732.23
2018-09-23T11:58:01.105Z,100715.75
2018-09-23T11:59:06.731Z,100704.36
2018-09-23T12:00:12.717Z,100696.21
2018-09-23T12:01:18.390Z,100691.30
2018-09-23T12:02:24.540Z,100689.81
2018-09-23T12:03:30.212Z,100696.61
2018-09-23T12:04:35.843Z,100689.92
2018-09-23T12:05:42.281Z,100696.40
2018-09-23T12:06:48.134Z,100683.23
2018-09-23T12:07:53.949Z,100675.20
2018-09-23T12:08:59.674Z,100654.18
2018-09-23T12:10:05.620Z,100634.02
2018-09-23T12:11:11.063Z,100626.06
2018-09-23T12:12:16.897Z,100635.14
2018-09-23T12:13:22.564Z,100649.44
2018-09-23T12:14:28.316Z,100687.43
2018-09-23T12:15:34.204Z,100699.07
2018-09-23T12:16:39.918Z,100706.34
2018-09-23T12:17:45.635Z,100711.64
2018-09-23T12:18:51.321Z,100710.91
2018-09-23T12:19:57.104Z,100694.73
2018-09-23T12:21:02.989Z,100695.19
2018-09-23T12:22:08.815Z,100697.81
2018-09-23T12:23:14.458Z,100702.56
2018-09-23T12:24:19.970Z,100696.05
2018-09-23T12:25:25.439Z,100687.64
2018-09-23T12:26:31.017Z,100687.25
2018-09-23T12:27:36.537Z,100678.52
2018-09-23T12:28:42.060Z,100667.09